sensor_id;sensor_type;location;lat;lon;timestamp;P1;durP1;ratioP1;P2;durP2;ratioP2
12840;SDS011;6487;48.626;12.486;2023-03-01T00:01:47;18.53;;;12.37;;
12840;SDS011;6487;48.626;12.486;2023-03-01T00:04:16;15.93;;;12.50;;
12840;SDS011;6487;48.626;12.486;2023-03-01T00:06:44;16.40;;;13.40;;
12840;SDS011;6487;48.626;12.486;2023-03-01T00:09:13;18.50;;;13.40;;
12840;SDS011;6487;48.626;12.486;2023-03-01T00:11:42;17.97;;;13.30;;
12840;SDS011;6487;48.626;12.486;2023-03-01T00:14:11;16.27;;;12.90;;
12840;SDS011;6487;48.626;12.486;2023-03-01T00:16:40;16.33;;;12.17;;
12840;SDS011;6487;48.626;12.486;2023-03-01T00:19:12;15.37;;;12.77;;
12840;SDS011;6487;48.626;12.486;2023-03-01T00:21:46;17.10;;;12.17;;
12840;SDS011;6487;48.626;12.486;2023-03-01T00:24:14;13.87;;;11.73;;
12840;SDS011;6487;48.626;12.486;2023-03-01T00:26:43;19.87;;;12.77;;
12840;SDS011;6487;48.626;12.486;2023-03-01T00:29:12;15.43;;;12.47;;
12840;SDS011;6487;48.626;12.486;2023-03-01T00:31:41;17.83;;;12.00;;
12840;SDS011;6487;48.626;12.486;2023-03-01T00:34:09;15.87;;;12.33;;
12840;SDS011;6487;48.626;12.486;2023-03-01T00:36:39;16.87;;;12.80;;
12840;SDS011;6487;48.626;12.486;2023-03-01T00:39:07;18.23;;;11.57;;
12840;SDS011;6487;48.626;12.486;2023-03-01T00:41:39;15.70;;;12.03;;
12840;SDS011;6487;48.626;12.486;2023-03-01T00:44:08;17.30;;;12.40;;
12840;SDS011;6487;48.626;12.486;2023-03-01T00:46:37;15.77;;;12.50;;
12840;SDS011;6487;48.626;12.486;2023-03-01T00:49:05;14.57;;;11.80;;
12840;SDS011;6487;48.626;12.486;2023-03-01T00:51:35;16.97;;;12.73;;
12840;SDS011;6487;48.626;12.486;2023-03-01T00:54:05;17.07;;;12.50;;
12840;SDS011;6487;48.626;12.486;2023-03-01T00:56:35;16.63;;;12.33;;
12840;SDS011;6487;48.626;12.486;2023-03-01T00:59:03;16.70;;;13.30;;
12840;SDS011;6487;48.626;12.486;2023-03-01T01:01:31;16.00;;;12.67;;
12840;SDS011;6487;48.626;12.486;2023-03-01T01:04:00;18.40;;;12.20;;
12840;SDS011;6487;48.626;12.486;2023-03-01T01:06:32;17.07;;;12.93;;
12840;SDS011;6487;48.626;12.486;2023-03-01T01:09:05;16.80;;;12.30;;
12840;SDS011;6487;48.626;12.486;2023-03-01T01:11:34;16.53;;;11.97;;
12840;SDS011;6487;48.626;12.486;2023-03-01T01:14:03;14.57;;;11.40;;
12840;SDS011;6487;48.626;12.486;2023-03-01T01:16:31;16.40;;;12.27;;
12840;SDS011;6487;48.626;12.486;2023-03-01T01:19:00;20.40;;;12.87;;
12840;SDS011;6487;48.626;12.486;2023-03-01T01:21:28;15.37;;;11.17;;
12840;SDS011;6487;48.626;12.486;2023-03-01T01:23:58;17.53;;;11.87;;
12840;SDS011;6487;48.626;12.486;2023-03-01T01:26:28;17.67;;;12.63;;
12840;SDS011;6487;48.626;12.486;2023-03-01T01:28:59;16.37;;;11.53;;
12840;SDS011;6487;48.626;12.486;2023-03-01T01:31:29;17.27;;;12.27;;
12840;SDS011;6487;48.626;12.486;2023-03-01T01:33:59;15.20;;;12.20;;
12840;SDS011;6487;48.626;12.486;2023-03-01T01:36:29;14.80;;;11.53;;
12840;SDS011;6487;48.626;12.486;2023-03-01T01:39:00;14.17;;;10.90;;
12840;SDS011;6487;48.626;12.486;2023-03-01T01:41:28;16.67;;;11.97;;
12840;SDS011;6487;48.626;12.486;2023-03-01T01:44:10;14.80;;;11.30;;
12840;SDS011;6487;48.626;12.486;2023-03-01T01:46:45;16.57;;;12.20;;
12840;SDS011;6487;48.626;12.486;2023-03-01T01:49:25;15.53;;;12.13;;
12840;SDS011;6487;48.626;12.486;2023-03-01T01:52:04;16.90;;;12.40;;
12840;SDS011;6487;48.626;12.486;2023-03-01T01:54:43;17.43;;;11.63;;
12840;SDS011;6487;48.626;12.486;2023-03-01T01:57:19;15.33;;;12.23;;
12840;SDS011;6487;48.626;12.486;2023-03-01T01:59:50;15.93;;;12.73;;
12840;SDS011;6487;48.626;12.486;2023-03-01T02:02:22;16.43;;;12.60;;
12840;SDS011;6487;48.626;12.486;2023-03-01T02:04:52;14.63;;;11.93;;
12840;SDS011;6487;48.626;12.486;2023-03-01T02:07:30;16.50;;;11.53;;
12840;SDS011;6487;48.626;12.486;2023-03-01T02:10:00;16.00;;;13.30;;
12840;SDS011;6487;48.626;12.486;2023-03-01T02:12:29;16.70;;;12.53;;
12840;SDS011;6487;48.626;12.486;2023-03-01T02:14:58;16.10;;;11.73;;
12840;SDS011;6487;48.626;12.486;2023-03-01T02:17:26;17.47;;;13.10;;
12840;SDS011;6487;48.626;12.486;2023-03-01T02:19:59;16.17;;;12.53;;
12840;SDS011;6487;48.626;12.486;2023-03-01T02:22:39;16.30;;;12.33;;
12840;SDS011;6487;48.626;12.486;2023-03-01T02:27:57;19.77;;;13.27;;
12840;SDS011;6487;48.626;12.486;2023-03-01T02:30:35;16.70;;;12.20;;
12840;SDS011;6487;48.626;12.486;2023-03-01T02:33:24;17.10;;;12.60;;
12840;SDS011;6487;48.626;12.486;2023-03-01T02:35:52;17.00;;;12.83;;
12840;SDS011;6487;48.626;12.486;2023-03-01T02:38:22;14.83;;;12.00;;
12840;SDS011;6487;48.626;12.486;2023-03-01T02:40:51;18.97;;;12.43;;
12840;SDS011;6487;48.626;12.486;2023-03-01T02:43:21;19.17;;;13.13;;
12840;SDS011;6487;48.626;12.486;2023-03-01T02:45:57;19.40;;;12.33;;
12840;SDS011;6487;48.626;12.486;2023-03-01T02:48:27;17.40;;;13.37;;
12840;SDS011;6487;48.626;12.486;2023-03-01T02:51:01;18.30;;;12.63;;
12840;SDS011;6487;48.626;12.486;2023-03-01T02:53:35;17.50;;;12.23;;
12840;SDS011;6487;48.626;12.486;2023-03-01T02:56:09;15.93;;;12.40;;
12840;SDS011;6487;48.626;12.486;2023-03-01T02:58:39;18.33;;;12.37;;
12840;SDS011;6487;48.626;12.486;2023-03-01T03:01:13;17.47;;;12.90;;
12840;SDS011;6487;48.626;12.486;2023-03-01T03:03:42;14.67;;;11.83;;
12840;SDS011;6487;48.626;12.486;2023-03-01T03:06:11;17.20;;;12.90;;
12840;SDS011;6487;48.626;12.486;2023-03-01T03:08:40;17.47;;;12.60;;
12840;SDS011;6487;48.626;12.486;2023-03-01T03:11:10;18.17;;;12.97;;
12840;SDS011;6487;48.626;12.486;2023-03-01T03:13:38;18.70;;;12.73;;
12840;SDS011;6487;48.626;12.486;2023-03-01T03:16:15;16.70;;;11.90;;
12840;SDS011;6487;48.626;12.486;2023-03-01T03:18:44;17.00;;;12.20;;
12840;SDS011;6487;48.626;12.486;2023-03-01T03:21:12;17.10;;;12.20;;
12840;SDS011;6487;48.626;12.486;2023-03-01T03:23:42;19.23;;;14.10;;
12840;SDS011;6487;48.626;12.486;2023-03-01T03:26:11;14.33;;;11.70;;
12840;SDS011;6487;48.626;12.486;2023-03-01T03:28:41;15.30;;;12.53;;
12840;SDS011;6487;48.626;12.486;2023-03-01T03:31:09;17.13;;;12.73;;
12840;SDS011;6487;48.626;12.486;2023-03-01T03:33:39;16.97;;;12.97;;
12840;SDS011;6487;48.626;12.486;2023-03-01T03:36:07;17.90;;;12.40;;
12840;SDS011;6487;48.626;12.486;2023-03-01T03:38:39;18.23;;;13.13;;
12840;SDS011;6487;48.626;12.486;2023-03-01T03:41:07;16.33;;;12.90;;
12840;SDS011;6487;48.626;12.486;2023-03-01T03:43:36;16.87;;;12.97;;
12840;SDS011;6487;48.626;12.486;2023-03-01T03:46:06;18.17;;;13.23;;
12840;SDS011;6487;48.626;12.486;2023-03-01T03:48:36;19.20;;;14.57;;
12840;SDS011;6487;48.626;12.486;2023-03-01T03:51:09;20.43;;;14.70;;
12840;SDS011;6487;48.626;12.486;2023-03-01T03:53:38;17.37;;;12.63;;
12840;SDS011;6487;48.626;12.486;2023-03-01T03:56:07;18.20;;;12.97;;
12840;SDS011;6487;48.626;12.486;2023-03-01T03:58:36;18.60;;;13.70;;
12840;SDS011;6487;48.626;12.486;2023-03-01T04:01:05;18.57;;;13.33;;
12840;SDS011;6487;48.626;12.486;2023-03-01T04:03:34;17.57;;;12.77;;
12840;SDS011;6487;48.626;12.486;2023-03-01T04:06:04;18.93;;;12.67;;
12840;SDS011;6487;48.626;12.486;2023-03-01T04:08:33;20.33;;;13.07;;
12840;SDS011;6487;48.626;12.486;2023-03-01T04:11:02;18.67;;;13.83;;
12840;SDS011;6487;48.626;12.486;2023-03-01T04:13:45;17.30;;;13.40;;
12840;SDS011;6487;48.626;12.486;2023-03-01T04:16:13;20.63;;;13.53;;
12840;SDS011;6487;48.626;12.486;2023-03-01T04:18:42;19.67;;;13.03;;
12840;SDS011;6487;48.626;12.486;2023-03-01T04:21:12;15.70;;;13.03;;
12840;SDS011;6487;48.626;12.486;2023-03-01T04:23:40;19.83;;;14.77;;
12840;SDS011;6487;48.626;12.486;2023-03-01T04:26:09;21.43;;;13.67;;
12840;SDS011;6487;48.626;12.486;2023-03-01T04:28:38;17.53;;;14.23;;
12840;SDS011;6487;48.626;12.486;2023-03-01T04:31:12;18.20;;;14.07;;
12840;SDS011;6487;48.626;12.486;2023-03-01T04:33:44;18.10;;;12.83;;
12840;SDS011;6487;48.626;12.486;2023-03-01T04:36:16;16.90;;;13.03;;
12840;SDS011;6487;48.626;12.486;2023-03-01T04:38:46;19.07;;;12.87;;
12840;SDS011;6487;48.626;12.486;2023-03-01T04:41:15;21.03;;;14.30;;
12840;SDS011;6487;48.626;12.486;2023-03-01T04:43:46;18.93;;;13.50;;
12840;SDS011;6487;48.626;12.486;2023-03-01T04:46:16;17.73;;;12.93;;
12840;SDS011;6487;48.626;12.486;2023-03-01T04:48:47;19.03;;;12.50;;
12840;SDS011;6487;48.626;12.486;2023-03-01T04:51:17;17.10;;;12.87;;
12840;SDS011;6487;48.626;12.486;2023-03-01T04:53:46;18.03;;;13.27;;
12840;SDS011;6487;48.626;12.486;2023-03-01T04:56:15;18.60;;;13.20;;
12840;SDS011;6487;48.626;12.486;2023-03-01T04:58:44;16.90;;;12.73;;
12840;SDS011;6487;48.626;12.486;2023-03-01T05:01:14;19.00;;;13.87;;
12840;SDS011;6487;48.626;12.486;2023-03-01T05:03:45;19.53;;;13.27;;
12840;SDS011;6487;48.626;12.486;2023-03-01T05:06:15;18.47;;;13.50;;
12840;SDS011;6487;48.626;12.486;2023-03-01T05:08:46;22.37;;;14.63;;
12840;SDS011;6487;48.626;12.486;2023-03-01T05:11:15;19.57;;;13.20;;
12840;SDS011;6487;48.626;12.486;2023-03-01T05:13:43;19.63;;;13.73;;
12840;SDS011;6487;48.626;12.486;2023-03-01T05:16:12;18.10;;;14.23;;
12840;SDS011;6487;48.626;12.486;2023-03-01T05:18:41;21.20;;;14.50;;
12840;SDS011;6487;48.626;12.486;2023-03-01T05:21:10;23.40;;;15.13;;
12840;SDS011;6487;48.626;12.486;2023-03-01T05:23:44;21.50;;;14.43;;
12840;SDS011;6487;48.626;12.486;2023-03-01T05:26:13;19.10;;;13.60;;
12840;SDS011;6487;48.626;12.486;2023-03-01T05:28:58;22.60;;;14.63;;
12840;SDS011;6487;48.626;12.486;2023-03-01T05:31:27;21.43;;;14.67;;
12840;SDS011;6487;48.626;12.486;2023-03-01T05:33:57;21.33;;;15.23;;
12840;SDS011;6487;48.626;12.486;2023-03-01T05:36:25;22.83;;;15.73;;
12840;SDS011;6487;48.626;12.486;2023-03-01T05:38:55;20.33;;;15.50;;
12840;SDS011;6487;48.626;12.486;2023-03-01T05:41:23;19.50;;;14.20;;
12840;SDS011;6487;48.626;12.486;2023-03-01T05:43:51;18.17;;;13.80;;
12840;SDS011;6487;48.626;12.486;2023-03-01T05:46:20;19.17;;;13.80;;
12840;SDS011;6487;48.626;12.486;2023-03-01T05:48:50;17.93;;;13.03;;
12840;SDS011;6487;48.626;12.486;2023-03-01T05:51:19;19.93;;;14.00;;
12840;SDS011;6487;48.626;12.486;2023-03-01T05:53:48;19.87;;;14.37;;
12840;SDS011;6487;48.626;12.486;2023-03-01T05:56:18;24.57;;;14.43;;
12840;SDS011;6487;48.626;12.486;2023-03-01T05:58:48;18.43;;;13.20;;
12840;SDS011;6487;48.626;12.486;2023-03-01T06:01:16;18.43;;;13.90;;
12840;SDS011;6487;48.626;12.486;2023-03-01T06:03:45;18.30;;;13.70;;
12840;SDS011;6487;48.626;12.486;2023-03-01T06:06:13;22.33;;;14.90;;
12840;SDS011;6487;48.626;12.486;2023-03-01T06:08:41;19.37;;;13.97;;
12840;SDS011;6487;48.626;12.486;2023-03-01T06:11:10;20.87;;;14.47;;
12840;SDS011;6487;48.626;12.486;2023-03-01T06:13:40;22.30;;;15.73;;
12840;SDS011;6487;48.626;12.486;2023-03-01T06:16:09;22.57;;;14.70;;
12840;SDS011;6487;48.626;12.486;2023-03-01T06:18:38;22.90;;;14.67;;
12840;SDS011;6487;48.626;12.486;2023-03-01T06:21:07;20.50;;;15.27;;
12840;SDS011;6487;48.626;12.486;2023-03-01T06:23:36;22.37;;;14.80;;
12840;SDS011;6487;48.626;12.486;2023-03-01T06:26:05;23.10;;;16.60;;
12840;SDS011;6487;48.626;12.486;2023-03-01T06:31:10;19.50;;;14.30;;
12840;SDS011;6487;48.626;12.486;2023-03-01T06:33:38;22.03;;;14.37;;
12840;SDS011;6487;48.626;12.486;2023-03-01T06:36:07;21.37;;;15.17;;
12840;SDS011;6487;48.626;12.486;2023-03-01T06:38:36;22.10;;;15.97;;
12840;SDS011;6487;48.626;12.486;2023-03-01T06:41:06;21.03;;;15.77;;
12840;SDS011;6487;48.626;12.486;2023-03-01T06:43:35;19.97;;;14.60;;
12840;SDS011;6487;48.626;12.486;2023-03-01T06:46:03;24.30;;;16.07;;
12840;SDS011;6487;48.626;12.486;2023-03-01T06:48:34;21.80;;;16.47;;
12840;SDS011;6487;48.626;12.486;2023-03-01T06:51:02;19.83;;;15.10;;
12840;SDS011;6487;48.626;12.486;2023-03-01T06:53:31;23.13;;;16.10;;
12840;SDS011;6487;48.626;12.486;2023-03-01T06:55:59;21.20;;;15.07;;
12840;SDS011;6487;48.626;12.486;2023-03-01T06:58:28;21.03;;;15.60;;
12840;SDS011;6487;48.626;12.486;2023-03-01T07:00:56;22.60;;;16.47;;
12840;SDS011;6487;48.626;12.486;2023-03-01T07:03:24;24.27;;;16.93;;
12840;SDS011;6487;48.626;12.486;2023-03-01T07:05:54;24.37;;;16.90;;
12840;SDS011;6487;48.626;12.486;2023-03-01T07:08:22;22.93;;;16.60;;
12840;SDS011;6487;48.626;12.486;2023-03-01T07:10:54;23.67;;;15.60;;
12840;SDS011;6487;48.626;12.486;2023-03-01T07:13:23;19.73;;;14.67;;
12840;SDS011;6487;48.626;12.486;2023-03-01T07:15:51;24.50;;;16.33;;
12840;SDS011;6487;48.626;12.486;2023-03-01T07:18:20;22.30;;;15.97;;
12840;SDS011;6487;48.626;12.486;2023-03-01T07:20:48;23.20;;;15.80;;
12840;SDS011;6487;48.626;12.486;2023-03-01T07:23:18;24.57;;;17.17;;
12840;SDS011;6487;48.626;12.486;2023-03-01T07:25:50;24.80;;;16.30;;
12840;SDS011;6487;48.626;12.486;2023-03-01T07:28:20;24.57;;;16.80;;
12840;SDS011;6487;48.626;12.486;2023-03-01T07:30:49;23.63;;;17.10;;
12840;SDS011;6487;48.626;12.486;2023-03-01T07:33:18;19.90;;;15.23;;
12840;SDS011;6487;48.626;12.486;2023-03-01T07:35:46;24.33;;;15.83;;
12840;SDS011;6487;48.626;12.486;2023-03-01T07:38:15;24.73;;;17.23;;
12840;SDS011;6487;48.626;12.486;2023-03-01T07:40:44;21.90;;;16.10;;
12840;SDS011;6487;48.626;12.486;2023-03-01T07:43:13;22.10;;;16.30;;
12840;SDS011;6487;48.626;12.486;2023-03-01T07:45:41;24.47;;;16.30;;
12840;SDS011;6487;48.626;12.486;2023-03-01T07:48:10;23.60;;;15.97;;
12840;SDS011;6487;48.626;12.486;2023-03-01T07:50:38;25.80;;;17.17;;
12840;SDS011;6487;48.626;12.486;2023-03-01T07:53:06;22.07;;;15.47;;
12840;SDS011;6487;48.626;12.486;2023-03-01T07:55:35;23.00;;;16.40;;
12840;SDS011;6487;48.626;12.486;2023-03-01T07:58:05;23.37;;;17.07;;
12840;SDS011;6487;48.626;12.486;2023-03-01T08:00:33;22.97;;;16.07;;
12840;SDS011;6487;48.626;12.486;2023-03-01T08:03:02;24.23;;;17.13;;
12840;SDS011;6487;48.626;12.486;2023-03-01T08:05:30;22.37;;;17.00;;
12840;SDS011;6487;48.626;12.486;2023-03-01T08:07:59;22.83;;;18.53;;
12840;SDS011;6487;48.626;12.486;2023-03-01T08:10:27;23.93;;;17.17;;
12840;SDS011;6487;48.626;12.486;2023-03-01T08:12:56;23.97;;;18.47;;
12840;SDS011;6487;48.626;12.486;2023-03-01T08:15:25;20.57;;;17.53;;
12840;SDS011;6487;48.626;12.486;2023-03-01T08:17:54;21.97;;;16.93;;
12840;SDS011;6487;48.626;12.486;2023-03-01T08:20:22;21.30;;;16.90;;
12840;SDS011;6487;48.626;12.486;2023-03-01T08:22:50;20.97;;;17.53;;
12840;SDS011;6487;48.626;12.486;2023-03-01T08:25:19;23.70;;;17.63;;
12840;SDS011;6487;48.626;12.486;2023-03-01T08:27:47;18.30;;;16.00;;
12840;SDS011;6487;48.626;12.486;2023-03-01T08:30:15;22.47;;;16.70;;
12840;SDS011;6487;48.626;12.486;2023-03-01T08:32:46;21.93;;;17.87;;
12840;SDS011;6487;48.626;12.486;2023-03-01T08:35:14;19.63;;;16.67;;
12840;SDS011;6487;48.626;12.486;2023-03-01T08:37:43;19.43;;;17.33;;
12840;SDS011;6487;48.626;12.486;2023-03-01T08:40:12;19.63;;;16.40;;
12840;SDS011;6487;48.626;12.486;2023-03-01T08:42:41;19.47;;;16.60;;
12840;SDS011;6487;48.626;12.486;2023-03-01T08:45:10;18.83;;;16.83;;
12840;SDS011;6487;48.626;12.486;2023-03-01T08:47:40;22.47;;;17.73;;
12840;SDS011;6487;48.626;12.486;2023-03-01T08:50:10;22.17;;;18.13;;
12840;SDS011;6487;48.626;12.486;2023-03-01T08:52:39;19.87;;;17.77;;
12840;SDS011;6487;48.626;12.486;2023-03-01T08:55:07;21.33;;;18.07;;
12840;SDS011;6487;48.626;12.486;2023-03-01T08:57:36;24.77;;;21.17;;
12840;SDS011;6487;48.626;12.486;2023-03-01T09:00:05;25.27;;;22.60;;
12840;SDS011;6487;48.626;12.486;2023-03-01T09:02:35;23.27;;;18.57;;
12840;SDS011;6487;48.626;12.486;2023-03-01T09:05:05;20.77;;;17.27;;
12840;SDS011;6487;48.626;12.486;2023-03-01T09:07:35;19.60;;;17.53;;
12840;SDS011;6487;48.626;12.486;2023-03-01T09:10:04;21.33;;;17.47;;
12840;SDS011;6487;48.626;12.486;2023-03-01T09:12:33;18.77;;;16.63;;
12840;SDS011;6487;48.626;12.486;2023-03-01T09:15:02;19.60;;;17.60;;
12840;SDS011;6487;48.626;12.486;2023-03-01T09:17:31;22.50;;;16.87;;
12840;SDS011;6487;48.626;12.486;2023-03-01T09:20:00;18.77;;;16.83;;
12840;SDS011;6487;48.626;12.486;2023-03-01T09:22:32;19.10;;;15.63;;
12840;SDS011;6487;48.626;12.486;2023-03-01T09:25:02;18.47;;;16.17;;
12840;SDS011;6487;48.626;12.486;2023-03-01T09:27:32;17.00;;;15.23;;
12840;SDS011;6487;48.626;12.486;2023-03-01T09:30:00;17.03;;;15.23;;
12840;SDS011;6487;48.626;12.486;2023-03-01T09:32:29;17.67;;;15.73;;
12840;SDS011;6487;48.626;12.486;2023-03-01T09:34:58;18.07;;;15.23;;
12840;SDS011;6487;48.626;12.486;2023-03-01T09:37:31;16.60;;;14.67;;
12840;SDS011;6487;48.626;12.486;2023-03-01T09:40:00;19.00;;;16.07;;
12840;SDS011;6487;48.626;12.486;2023-03-01T09:42:32;18.67;;;16.10;;
12840;SDS011;6487;48.626;12.486;2023-03-01T09:45:04;17.70;;;15.77;;
12840;SDS011;6487;48.626;12.486;2023-03-01T09:47:34;16.80;;;15.13;;
12840;SDS011;6487;48.626;12.486;2023-03-01T09:50:05;17.63;;;15.83;;
12840;SDS011;6487;48.626;12.486;2023-03-01T09:52:41;19.17;;;14.77;;
12840;SDS011;6487;48.626;12.486;2023-03-01T09:55:15;18.20;;;15.40;;
12840;SDS011;6487;48.626;12.486;2023-03-01T09:57:58;17.17;;;15.00;;
12840;SDS011;6487;48.626;12.486;2023-03-01T10:00:39;17.17;;;14.93;;
12840;SDS011;6487;48.626;12.486;2023-03-01T10:03:12;18.33;;;15.20;;
12840;SDS011;6487;48.626;12.486;2023-03-01T10:05:50;17.90;;;16.00;;
12840;SDS011;6487;48.626;12.486;2023-03-01T10:08:35;16.97;;;15.17;;
12840;SDS011;6487;48.626;12.486;2023-03-01T10:11:16;17.27;;;15.40;;
12840;SDS011;6487;48.626;12.486;2023-03-01T10:13:52;18.13;;;16.23;;
12840;SDS011;6487;48.626;12.486;2023-03-01T10:16:27;18.63;;;16.13;;
12840;SDS011;6487;48.626;12.486;2023-03-01T10:19:05;18.93;;;15.70;;
12840;SDS011;6487;48.626;12.486;2023-03-01T10:21:39;16.87;;;15.27;;
12840;SDS011;6487;48.626;12.486;2023-03-01T10:24:13;17.27;;;15.37;;
12840;SDS011;6487;48.626;12.486;2023-03-01T10:26:48;19.07;;;15.87;;
12840;SDS011;6487;48.626;12.486;2023-03-01T10:29:23;16.97;;;15.10;;
12840;SDS011;6487;48.626;12.486;2023-03-01T10:31:59;17.03;;;15.23;;
12840;SDS011;6487;48.626;12.486;2023-03-01T10:34:28;17.87;;;15.87;;
12840;SDS011;6487;48.626;12.486;2023-03-01T10:37:01;16.87;;;15.13;;
12840;SDS011;6487;48.626;12.486;2023-03-01T10:39:54;16.00;;;14.30;;
12840;SDS011;6487;48.626;12.486;2023-03-01T10:42:34;16.63;;;14.87;;
12840;SDS011;6487;48.626;12.486;2023-03-01T10:45:16;16.10;;;14.50;;
12840;SDS011;6487;48.626;12.486;2023-03-01T10:48:11;16.33;;;14.67;;
12840;SDS011;6487;48.626;12.486;2023-03-01T10:50:43;17.00;;;14.70;;
12840;SDS011;6487;48.626;12.486;2023-03-01T10:53:22;17.80;;;15.30;;
12840;SDS011;6487;48.626;12.486;2023-03-01T10:55:59;17.13;;;15.40;;
12840;SDS011;6487;48.626;12.486;2023-03-01T10:58:32;16.97;;;14.93;;
12840;SDS011;6487;48.626;12.486;2023-03-01T11:01:03;17.73;;;15.93;;
12840;SDS011;6487;48.626;12.486;2023-03-01T11:03:33;17.03;;;15.23;;
12840;SDS011;6487;48.626;12.486;2023-03-01T11:06:05;16.30;;;14.53;;
12840;SDS011;6487;48.626;12.486;2023-03-01T11:08:49;18.33;;;14.70;;
12840;SDS011;6487;48.626;12.486;2023-03-01T11:11:22;15.70;;;14.13;;
12840;SDS011;6487;48.626;12.486;2023-03-01T11:14:01;16.33;;;14.37;;
12840;SDS011;6487;48.626;12.486;2023-03-01T11:16:57;16.53;;;14.63;;
12840;SDS011;6487;48.626;12.486;2023-03-01T11:19:27;16.93;;;15.23;;
12840;SDS011;6487;48.626;12.486;2023-03-01T11:21:57;15.60;;;14.10;;
12840;SDS011;6487;48.626;12.486;2023-03-01T11:24:33;16.70;;;15.00;;
12840;SDS011;6487;48.626;12.486;2023-03-01T11:27:13;15.73;;;14.10;;
12840;SDS011;6487;48.626;12.486;2023-03-01T11:29:51;18.70;;;13.97;;
12840;SDS011;6487;48.626;12.486;2023-03-01T11:32:24;15.73;;;14.23;;
12840;SDS011;6487;48.626;12.486;2023-03-01T11:34:57;15.77;;;14.00;;
12840;SDS011;6487;48.626;12.486;2023-03-01T11:37:32;15.50;;;14.00;;
12840;SDS011;6487;48.626;12.486;2023-03-01T11:40:10;15.93;;;14.33;;
12840;SDS011;6487;48.626;12.486;2023-03-01T11:42:48;15.50;;;13.87;;
12840;SDS011;6487;48.626;12.486;2023-03-01T11:45:29;15.40;;;13.90;;
12840;SDS011;6487;48.626;12.486;2023-03-01T11:48:19;14.63;;;13.23;;
12840;SDS011;6487;48.626;12.486;2023-03-01T11:51:16;14.57;;;13.10;;
12840;SDS011;6487;48.626;12.486;2023-03-01T11:54:04;16.17;;;14.47;;
12840;SDS011;6487;48.626;12.486;2023-03-01T11:56:43;15.50;;;13.97;;
12840;SDS011;6487;48.626;12.486;2023-03-01T11:59:25;15.27;;;13.77;;
12840;SDS011;6487;48.626;12.486;2023-03-01T12:02:29;15.90;;;14.20;;
12840;SDS011;6487;48.626;12.486;2023-03-01T12:08:42;15.80;;;14.20;;
12840;SDS011;6487;48.626;12.486;2023-03-01T12:11:18;14.77;;;13.13;;
12840;SDS011;6487;48.626;12.486;2023-03-01T12:17:03;14.97;;;13.37;;
12840;SDS011;6487;48.626;12.486;2023-03-01T12:19:56;15.03;;;13.30;;
12840;SDS011;6487;48.626;12.486;2023-03-01T12:23:02;14.50;;;13.00;;
12840;SDS011;6487;48.626;12.486;2023-03-01T12:26:08;14.50;;;12.87;;
12840;SDS011;6487;48.626;12.486;2023-03-01T12:28:45;15.43;;;13.83;;
12840;SDS011;6487;48.626;12.486;2023-03-01T12:31:31;13.97;;;12.63;;
12840;SDS011;6487;48.626;12.486;2023-03-01T12:34:27;13.90;;;12.40;;
12840;SDS011;6487;48.626;12.486;2023-03-01T12:37:23;15.80;;;13.50;;
12840;SDS011;6487;48.626;12.486;2023-03-01T12:40:03;14.80;;;13.27;;
12840;SDS011;6487;48.626;12.486;2023-03-01T12:42:53;16.40;;;13.03;;
12840;SDS011;6487;48.626;12.486;2023-03-01T12:45:34;13.90;;;12.57;;
12840;SDS011;6487;48.626;12.486;2023-03-01T12:48:24;15.27;;;13.77;;
12840;SDS011;6487;48.626;12.486;2023-03-01T12:51:08;15.20;;;13.47;;
12840;SDS011;6487;48.626;12.486;2023-03-01T12:53:44;15.33;;;13.73;;
12840;SDS011;6487;48.626;12.486;2023-03-01T12:56:17;13.90;;;12.40;;
12840;SDS011;6487;48.626;12.486;2023-03-01T12:58:51;15.33;;;13.83;;
12840;SDS011;6487;48.626;12.486;2023-03-01T13:01:32;15.13;;;13.47;;
12840;SDS011;6487;48.626;12.486;2023-03-01T13:07:11;13.77;;;12.33;;
12840;SDS011;6487;48.626;12.486;2023-03-01T13:09:54;14.60;;;12.37;;
12840;SDS011;6487;48.626;12.486;2023-03-01T13:12:49;14.10;;;12.60;;
12840;SDS011;6487;48.626;12.486;2023-03-01T13:15:28;14.23;;;12.73;;
12840;SDS011;6487;48.626;12.486;2023-03-01T13:18:04;13.47;;;12.07;;
12840;SDS011;6487;48.626;12.486;2023-03-01T13:20:56;14.00;;;12.37;;
12840;SDS011;6487;48.626;12.486;2023-03-01T13:23:28;13.00;;;11.80;;
12840;SDS011;6487;48.626;12.486;2023-03-01T13:26:03;12.93;;;11.70;;
12840;SDS011;6487;48.626;12.486;2023-03-01T13:28:38;11.53;;;10.30;;
12840;SDS011;6487;48.626;12.486;2023-03-01T13:37:29;12.53;;;11.03;;
12840;SDS011;6487;48.626;12.486;2023-03-01T13:43:30;16.67;;;14.57;;
12840;SDS011;6487;48.626;12.486;2023-03-01T13:46:00;11.63;;;10.53;;
12840;SDS011;6487;48.626;12.486;2023-03-01T13:48:35;13.43;;;12.07;;
12840;SDS011;6487;48.626;12.486;2023-03-01T13:51:06;29.37;;;22.63;;
12840;SDS011;6487;48.626;12.486;2023-03-01T13:53:38;12.97;;;11.67;;
12840;SDS011;6487;48.626;12.486;2023-03-01T13:56:11;11.53;;;10.40;;
12840;SDS011;6487;48.626;12.486;2023-03-01T13:58:50;13.07;;;10.13;;
12840;SDS011;6487;48.626;12.486;2023-03-01T14:01:26;10.80;;;9.70;;
12840;SDS011;6487;48.626;12.486;2023-03-01T14:03:57;12.17;;;10.60;;
12840;SDS011;6487;48.626;12.486;2023-03-01T14:06:27;10.83;;;9.80;;
12840;SDS011;6487;48.626;12.486;2023-03-01T14:09:02;13.20;;;10.80;;
12840;SDS011;6487;48.626;12.486;2023-03-01T14:14:48;15.13;;;13.63;;
12840;SDS011;6487;48.626;12.486;2023-03-01T14:20:27;14.53;;;13.03;;
12840;SDS011;6487;48.626;12.486;2023-03-01T14:22:58;13.87;;;12.30;;
12840;SDS011;6487;48.626;12.486;2023-03-01T14:25:30;15.07;;;13.30;;
12840;SDS011;6487;48.626;12.486;2023-03-01T14:28:02;14.67;;;12.43;;
12840;SDS011;6487;48.626;12.486;2023-03-01T14:30:41;17.03;;;12.77;;
12840;SDS011;6487;48.626;12.486;2023-03-01T14:33:18;14.30;;;12.80;;
12840;SDS011;6487;48.626;12.486;2023-03-01T14:35:52;13.83;;;12.47;;
12840;SDS011;6487;48.626;12.486;2023-03-01T14:38:29;15.67;;;12.27;;
12840;SDS011;6487;48.626;12.486;2023-03-01T14:41:02;13.30;;;11.90;;
12840;SDS011;6487;48.626;12.486;2023-03-01T14:43:35;14.27;;;12.77;;
12840;SDS011;6487;48.626;12.486;2023-03-01T14:46:11;14.13;;;12.73;;
12840;SDS011;6487;48.626;12.486;2023-03-01T14:48:48;14.40;;;12.30;;
12840;SDS011;6487;48.626;12.486;2023-03-01T14:51:18;14.73;;;12.27;;
12840;SDS011;6487;48.626;12.486;2023-03-01T14:53:46;13.10;;;11.70;;
12840;SDS011;6487;48.626;12.486;2023-03-01T14:56:17;12.83;;;11.53;;
12840;SDS011;6487;48.626;12.486;2023-03-01T14:58:46;14.30;;;12.47;;
12840;SDS011;6487;48.626;12.486;2023-03-01T15:01:20;13.77;;;12.43;;
12840;SDS011;6487;48.626;12.486;2023-03-01T15:03:49;15.37;;;12.97;;
12840;SDS011;6487;48.626;12.486;2023-03-01T15:06:19;12.90;;;11.37;;
12840;SDS011;6487;48.626;12.486;2023-03-01T15:08:51;13.17;;;11.87;;
12840;SDS011;6487;48.626;12.486;2023-03-01T15:11:23;14.37;;;12.93;;
12840;SDS011;6487;48.626;12.486;2023-03-01T15:13:56;25.73;;;13.67;;
12840;SDS011;6487;48.626;12.486;2023-03-01T15:16:27;13.37;;;11.97;;
12840;SDS011;6487;48.626;12.486;2023-03-01T15:18:58;16.53;;;12.00;;
12840;SDS011;6487;48.626;12.486;2023-03-01T15:21:31;14.10;;;11.77;;
12840;SDS011;6487;48.626;12.486;2023-03-01T15:24:02;13.90;;;11.53;;